sensor_id;sensor_type;location;lat;lon;timestamp;temperature;humidity
74513;DHT22;62992;52.052;8.550;2023-05-18T00:02:31;6.00;99.90
74513;DHT22;62992;52.052;8.550;2023-05-18T00:05:15;5.90;99.90
74513;DHT22;62992;52.052;8.550;2023-05-18T00:08:02;5.90;99.90
74513;DHT22;62992;52.052;8.550;2023-05-18T00:10:46;5.90;99.90
74513;DHT22;62992;52.052;8.550;2023-05-18T00:13:30;5.90;99.90
74513;DHT22;62992;52.052;8.550;2023-05-18T00:16:15;5.90;99.90
74513;DHT22;62992;52.052;8.550;2023-05-18T00:18:59;5.80;99.90
74513;DHT22;62992;52.052;8.550;2023-05-18T00:21:45;5.80;99.90
74513;DHT22;62992;52.052;8.550;2023-05-18T00:24:30;5.80;99.90
74513;DHT22;62992;52.052;8.550;2023-05-18T00:27:15;5.80;99.90
74513;DHT22;62992;52.052;8.550;2023-05-18T00:29:59;5.70;99.90
74513;DHT22;62992;52.052;8.550;2023-05-18T00:32:43;5.70;99.90
74513;DHT22;62992;52.052;8.550;2023-05-18T00:35:28;5.70;99.90
74513;DHT22;62992;52.052;8.550;2023-05-18T00:38:12;5.60;99.90
74513;DHT22;62992;52.052;8.550;2023-05-18T00:40:58;5.60;99.90
74513;DHT22;62992;52.052;8.550;2023-05-18T00:43:42;5.70;99.90
74513;DHT22;62992;52.052;8.550;2023-05-18T00:46:27;5.80;99.90
74513;DHT22;62992;52.052;8.550;2023-05-18T00:49:11;5.70;99.90
74513;DHT22;62992;52.052;8.550;2023-05-18T00:51:55;5.70;99.90
74513;DHT22;62992;52.052;8.550;2023-05-18T00:54:40;5.70;99.90
74513;DHT22;62992;52.052;8.550;2023-05-18T00:57:25;5.60;99.90
74513;DHT22;62992;52.052;8.550;2023-05-18T01:00:12;5.60;99.90
74513;DHT22;62992;52.052;8.550;2023-05-18T01:02:57;5.60;99.90
74513;DHT22;62992;52.052;8.550;2023-05-18T01:05:42;5.50;99.90
74513;DHT22;62992;52.052;8.550;2023-05-18T01:08:26;5.60;99.90
74513;DHT22;62992;52.052;8.550;2023-05-18T01:11:13;5.60;99.90
74513;DHT22;62992;52.052;8.550;2023-05-18T01:16:58;5.50;99.90
74513;DHT22;62992;52.052;8.550;2023-05-18T01:28:24;5.40;99.90
74513;DHT22;62992;52.052;8.550;2023-05-18T01:31:12;5.40;99.90
74513;DHT22;62992;52.052;8.550;2023-05-18T01:33:57;5.30;99.90
74513;DHT22;62992;52.052;8.550;2023-05-18T01:36:41;5.40;99.90
74513;DHT22;62992;52.052;8.550;2023-05-18T01:39:25;5.40;99.90
74513;DHT22;62992;52.052;8.550;2023-05-18T01:42:10;5.40;99.90
74513;DHT22;62992;52.052;8.550;2023-05-18T01:44:57;5.20;99.90
74513;DHT22;62992;52.052;8.550;2023-05-18T01:47:41;5.10;99.90
74513;DHT22;62992;52.052;8.550;2023-05-18T01:50:33;5.10;99.90
74513;DHT22;62992;52.052;8.550;2023-05-18T01:53:24;5.00;99.90
74513;DHT22;62992;52.052;8.550;2023-05-18T01:56:10;5.00;99.90
74513;DHT22;62992;52.052;8.550;2023-05-18T01:58:56;4.90;99.90
74513;DHT22;62992;52.052;8.550;2023-05-18T02:01:40;4.90;99.90
74513;DHT22;62992;52.052;8.550;2023-05-18T02:04:24;4.80;99.90
74513;DHT22;62992;52.052;8.550;2023-05-18T02:07:08;4.80;99.90
74513;DHT22;62992;52.052;8.550;2023-05-18T02:09:52;4.80;99.90
74513;DHT22;62992;52.052;8.550;2023-05-18T02:12:37;4.70;99.90
74513;DHT22;62992;52.052;8.550;2023-05-18T02:15:21;4.60;99.90
74513;DHT22;62992;52.052;8.550;2023-05-18T02:18:05;4.70;99.90
74513;DHT22;62992;52.052;8.550;2023-05-18T02:20:56;4.70;99.90
74513;DHT22;62992;52.052;8.550;2023-05-18T02:23:41;4.60;99.90
74513;DHT22;62992;52.052;8.550;2023-05-18T02:26:26;4.60;99.90
74513;DHT22;62992;52.052;8.550;2023-05-18T02:29:10;4.50;99.90
74513;DHT22;62992;52.052;8.550;2023-05-18T02:31:55;4.50;99.90
74513;DHT22;62992;52.052;8.550;2023-05-18T02:34:39;4.50;99.90
74513;DHT22;62992;52.052;8.550;2023-05-18T02:37:25;4.50;99.90
74513;DHT22;62992;52.052;8.550;2023-05-18T02:40:10;4.50;99.90
74513;DHT22;62992;52.052;8.550;2023-05-18T02:42:55;4.50;99.90
74513;DHT22;62992;52.052;8.550;2023-05-18T02:45:39;4.50;99.90
74513;DHT22;62992;52.052;8.550;2023-05-18T02:48:23;4.40;99.90
74513;DHT22;62992;52.052;8.550;2023-05-18T02:51:07;4.40;99.90
74513;DHT22;62992;52.052;8.550;2023-05-18T02:53:51;4.40;99.90
74513;DHT22;62992;52.052;8.550;2023-05-18T02:56:36;4.40;99.90
74513;DHT22;62992;52.052;8.550;2023-05-18T02:59:21;4.40;99.90
74513;DHT22;62992;52.052;8.550;2023-05-18T03:02:05;4.30;99.90
74513;DHT22;62992;52.052;8.550;2023-05-18T03:04:49;4.30;99.90
74513;DHT22;62992;52.052;8.550;2023-05-18T03:07:39;4.30;99.90
74513;DHT22;62992;52.052;8.550;2023-05-18T03:10:25;4.30;99.90
74513;DHT22;62992;52.052;8.550;2023-05-18T03:13:09;4.20;99.90
74513;DHT22;62992;52.052;8.550;2023-05-18T03:15:53;4.20;99.90
74513;DHT22;62992;52.052;8.550;2023-05-18T03:18:39;4.20;99.90
74513;DHT22;62992;52.052;8.550;2023-05-18T03:21:23;4.20;99.90
74513;DHT22;62992;52.052;8.550;2023-05-18T03:24:08;4.20;99.90
74513;DHT22;62992;52.052;8.550;2023-05-18T03:26:52;4.20;99.90
74513;DHT22;62992;52.052;8.550;2023-05-18T03:29:38;4.10;99.90
74513;DHT22;62992;52.052;8.550;2023-05-18T03:32:22;4.20;99.90
74513;DHT22;62992;52.052;8.550;2023-05-18T03:35:07;4.20;99.90
74513;DHT22;62992;52.052;8.550;2023-05-18T03:37:51;4.20;99.90
74513;DHT22;62992;52.052;8.550;2023-05-18T03:40:35;4.20;99.90
74513;DHT22;62992;52.052;8.550;2023-05-18T03:43:20;4.00;99.90
74513;DHT22;62992;52.052;8.550;2023-05-18T03:46:04;4.10;99.90
74513;DHT22;62992;52.052;8.550;2023-05-18T03:48:48;4.10;99.90
74513;DHT22;62992;52.052;8.550;2023-05-18T03:51:32;4.10;99.90
74513;DHT22;62992;52.052;8.550;2023-05-18T03:54:16;4.10;99.90
74513;DHT22;62992;52.052;8.550;2023-05-18T03:57:01;4.10;99.90
74513;DHT22;62992;52.052;8.550;2023-05-18T03:59:45;4.10;99.90
74513;DHT22;62992;52.052;8.550;2023-05-18T04:02:29;4.10;99.90
74513;DHT22;62992;52.052;8.550;2023-05-18T04:05:13;4.10;99.90
74513;DHT22;62992;52.052;8.550;2023-05-18T04:07:58;4.10;99.90
74513;DHT22;62992;52.052;8.550;2023-05-18T04:10:42;4.10;99.90
74513;DHT22;62992;52.052;8.550;2023-05-18T04:13:26;4.20;99.90
74513;DHT22;62992;52.052;8.550;2023-05-18T04:16:11;4.10;99.90
74513;DHT22;62992;52.052;8.550;2023-05-18T04:18:56;4.20;99.90
74513;DHT22;62992;52.052;8.550;2023-05-18T04:21:40;4.30;99.90
74513;DHT22;62992;52.052;8.550;2023-05-18T04:24:26;4.30;99.90
74513;DHT22;62992;52.052;8.550;2023-05-18T04:27:10;4.30;99.90
74513;DHT22;62992;52.052;8.550;2023-05-18T04:29:55;4.40;99.90
74513;DHT22;62992;52.052;8.550;2023-05-18T04:32:39;4.50;99.90
74513;DHT22;62992;52.052;8.550;2023-05-18T04:35:26;4.60;99.90
74513;DHT22;62992;52.052;8.550;2023-05-18T04:38:10;4.60;99.90
74513;DHT22;62992;52.052;8.550;2023-05-18T04:40:54;4.70;99.90
74513;DHT22;62992;52.052;8.550;2023-05-18T04:43:39;4.80;99.90
74513;DHT22;62992;52.052;8.550;2023-05-18T04:46:24;4.90;99.90
74513;DHT22;62992;52.052;8.550;2023-05-18T04:49:08;4.90;99.90
74513;DHT22;62992;52.052;8.550;2023-05-18T04:51:53;5.00;99.90
74513;DHT22;62992;52.052;8.550;2023-05-18T04:54:41;5.10;99.90
74513;DHT22;62992;52.052;8.550;2023-05-18T04:57:26;5.20;99.90
74513;DHT22;62992;52.052;8.550;2023-05-18T05:00:10;5.20;99.90
74513;DHT22;62992;52.052;8.550;2023-05-18T05:02:56;5.20;99.90
74513;DHT22;62992;52.052;8.550;2023-05-18T05:05:40;5.30;99.90
74513;DHT22;62992;52.052;8.550;2023-05-18T05:08:24;5.50;99.90
74513;DHT22;62992;52.052;8.550;2023-05-18T05:11:09;5.60;99.90
74513;DHT22;62992;52.052;8.550;2023-05-18T05:13:53;5.70;99.90
74513;DHT22;62992;52.052;8.550;2023-05-18T05:16:38;5.90;99.90
74513;DHT22;62992;52.052;8.550;2023-05-18T05:19:22;6.10;99.90
74513;DHT22;62992;52.052;8.550;2023-05-18T05:22:06;6.60;99.90
74513;DHT22;62992;52.052;8.550;2023-05-18T05:24:50;7.30;99.90
74513;DHT22;62992;52.052;8.550;2023-05-18T05:27:35;7.90;99.90
74513;DHT22;62992;52.052;8.550;2023-05-18T05:30:19;8.60;99.90
74513;DHT22;62992;52.052;8.550;2023-05-18T05:33:03;9.50;99.90
74513;DHT22;62992;52.052;8.550;2023-05-18T05:35:47;10.80;99.90
74513;DHT22;62992;52.052;8.550;2023-05-18T05:38:32;11.70;99.90
74513;DHT22;62992;52.052;8.550;2023-05-18T05:41:16;12.40;99.90
74513;DHT22;62992;52.052;8.550;2023-05-18T05:44:00;13.00;99.90
74513;DHT22;62992;52.052;8.550;2023-05-18T05:46:44;13.40;99.90
74513;DHT22;62992;52.052;8.550;2023-05-18T05:49:28;13.90;99.90
74513;DHT22;62992;52.052;8.550;2023-05-18T05:52:12;14.40;99.90
74513;DHT22;62992;52.052;8.550;2023-05-18T05:54:56;14.60;99.10
74513;DHT22;62992;52.052;8.550;2023-05-18T05:57:41;14.50;97.90
74513;DHT22;62992;52.052;8.550;2023-05-18T06:00:25;15.10;97.60
74513;DHT22;62992;52.052;8.550;2023-05-18T06:03:11;15.40;96.60
74513;DHT22;62992;52.052;8.550;2023-05-18T06:05:55;14.90;96.60
74513;DHT22;62992;52.052;8.550;2023-05-18T06:08:40;15.60;96.30
74513;DHT22;62992;52.052;8.550;2023-05-18T06:11:24;15.00;95.20
74513;DHT22;62992;52.052;8.550;2023-05-18T06:14:09;15.80;95.60
74513;DHT22;62992;52.052;8.550;2023-05-18T06:16:53;16.40;94.10
74513;DHT22;62992;52.052;8.550;2023-05-18T06:19:37;16.40;93.20
74513;DHT22;62992;52.052;8.550;2023-05-18T06:22:22;17.00;92.90
74513;DHT22;62992;52.052;8.550;2023-05-18T06:25:06;17.00;92.80
74513;DHT22;62992;52.052;8.550;2023-05-18T06:27:51;17.00;92.50
74513;DHT22;62992;52.052;8.550;2023-05-18T06:30:35;17.20;91.10
74513;DHT22;62992;52.052;8.550;2023-05-18T06:33:19;17.10;92.20
74513;DHT22;62992;52.052;8.550;2023-05-18T06:36:06;17.30;91.40
74513;DHT22;62992;52.052;8.550;2023-05-18T06:38:50;17.00;91.30
74513;DHT22;62992;52.052;8.550;2023-05-18T06:41:34;16.80;91.60
74513;DHT22;62992;52.052;8.550;2023-05-18T06:44:18;17.10;91.80
74513;DHT22;62992;52.052;8.550;2023-05-18T06:47:03;17.30;91.50
74513;DHT22;62992;52.052;8.550;2023-05-18T06:49:47;17.40;91.20
74513;DHT22;62992;52.052;8.550;2023-05-18T06:52:31;17.70;90.50
74513;DHT22;62992;52.052;8.550;2023-05-18T06:55:15;17.90;90.50
74513;DHT22;62992;52.052;8.550;2023-05-18T06:57:59;17.60;90.40
74513;DHT22;62992;52.052;8.550;2023-05-18T07:00:45;18.10;90.00
74513;DHT22;62992;52.052;8.550;2023-05-18T07:03:31;17.80;90.60
74513;DHT22;62992;52.052;8.550;2023-05-18T07:06:15;18.00;89.90
74513;DHT22;62992;52.052;8.550;2023-05-18T07:09:00;17.50;89.20
74513;DHT22;62992;52.052;8.550;2023-05-18T07:11:45;18.10;90.00
74513;DHT22;62992;52.052;8.550;2023-05-18T07:14:29;18.20;90.10
74513;DHT22;62992;52.052;8.550;2023-05-18T07:17:13;17.40;90.60
74513;DHT22;62992;52.052;8.550;2023-05-18T07:19:57;18.10;89.20
74513;DHT22;62992;52.052;8.550;2023-05-18T07:22:42;18.30;89.70
74513;DHT22;62992;52.052;8.550;2023-05-18T07:25:26;18.60;87.70
74513;DHT22;62992;52.052;8.550;2023-05-18T07:28:10;18.70;86.90
74513;DHT22;62992;52.052;8.550;2023-05-18T07:30:54;18.60;88.00
74513;DHT22;62992;52.052;8.550;2023-05-18T07:33:39;18.70;87.30
74513;DHT22;62992;52.052;8.550;2023-05-18T07:36:23;17.20;89.70
74513;DHT22;62992;52.052;8.550;2023-05-18T07:39:08;18.20;90.50
74513;DHT22;62992;52.052;8.550;2023-05-18T07:42:00;18.50;88.40
74513;DHT22;62992;52.052;8.550;2023-05-18T07:44:44;17.90;89.10
74513;DHT22;62992;52.052;8.550;2023-05-18T07:47:29;18.70;89.50
74513;DHT22;62992;52.052;8.550;2023-05-18T07:50:13;18.20;86.00
74513;DHT22;62992;52.052;8.550;2023-05-18T07:52:57;18.70;87.20
74513;DHT22;62992;52.052;8.550;2023-05-18T07:55:41;17.20;88.20
74513;DHT22;62992;52.052;8.550;2023-05-18T07:58:26;17.70;89.10
74513;DHT22;62992;52.052;8.550;2023-05-18T08:01:10;18.60;88.40
74513;DHT22;62992;52.052;8.550;2023-05-18T08:03:54;19.10;87.60
74513;DHT22;62992;52.052;8.550;2023-05-18T08:06:39;18.60;87.00
74513;DHT22;62992;52.052;8.550;2023-05-18T08:09:23;19.10;86.20
74513;DHT22;62992;52.052;8.550;2023-05-18T08:12:08;19.40;85.00
74513;DHT22;62992;52.052;8.550;2023-05-18T08:14:52;18.60;86.60
74513;DHT22;62992;52.052;8.550;2023-05-18T08:17:36;19.00;86.30
74513;DHT22;62992;52.052;8.550;2023-05-18T08:20:20;17.50;86.10
74513;DHT22;62992;52.052;8.550;2023-05-18T08:23:05;17.60;86.90
74513;DHT22;62992;52.052;8.550;2023-05-18T08:25:49;18.40;88.70
74513;DHT22;62992;52.052;8.550;2023-05-18T08:28:33;18.70;85.80
74513;DHT22;62992;52.052;8.550;2023-05-18T08:31:17;17.80;87.40
74513;DHT22;62992;52.052;8.550;2023-05-18T08:34:02;18.60;86.50
74513;DHT22;62992;52.052;8.550;2023-05-18T08:36:46;18.50;84.30
74513;DHT22;62992;52.052;8.550;2023-05-18T08:39:30;18.50;86.20
74513;DHT22;62992;52.052;8.550;2023-05-18T08:42:18;19.30;86.00
74513;DHT22;62992;52.052;8.550;2023-05-18T08:45:14;19.30;83.60
74513;DHT22;62992;52.052;8.550;2023-05-18T08:47:59;18.50;86.00
74513;DHT22;62992;52.052;8.550;2023-05-18T08:50:48;18.60;86.30
74513;DHT22;62992;52.052;8.550;2023-05-18T08:53:34;17.80;88.10
74513;DHT22;62992;52.052;8.550;2023-05-18T08:56:24;17.40;89.70
74513;DHT22;62992;52.052;8.550;2023-05-18T08:59:09;17.30;90.30
74513;DHT22;62992;52.052;8.550;2023-05-18T09:01:54;17.30;90.40
74513;DHT22;62992;52.052;8.550;2023-05-18T09:04:39;17.50;88.60
74513;DHT22;62992;52.052;8.550;2023-05-18T09:07:23;17.40;90.50
74513;DHT22;62992;52.052;8.550;2023-05-18T09:10:10;17.80;90.30
74513;DHT22;62992;52.052;8.550;2023-05-18T09:12:56;17.20;90.60
74513;DHT22;62992;52.052;8.550;2023-05-18T09:15:41;16.60;90.80
74513;DHT22;62992;52.052;8.550;2023-05-18T09:18:25;17.00;91.60
74513;DHT22;62992;52.052;8.550;2023-05-18T09:21:09;16.60;90.60
74513;DHT22;62992;52.052;8.550;2023-05-18T09:23:54;16.60;90.70
74513;DHT22;62992;52.052;8.550;2023-05-18T09:26:38;16.20;90.90
74513;DHT22;62992;52.052;8.550;2023-05-18T09:29:22;16.30;89.60
74513;DHT22;62992;52.052;8.550;2023-05-18T09:32:09;16.70;91.20
74513;DHT22;62992;52.052;8.550;2023-05-18T09:34:53;17.30;91.30
74513;DHT22;62992;52.052;8.550;2023-05-18T09:37:40;17.40;90.40
74513;DHT22;62992;52.052;8.550;2023-05-18T09:40:26;17.50;91.30
74513;DHT22;62992;52.052;8.550;2023-05-18T09:43:10;17.20;90.80
74513;DHT22;62992;52.052;8.550;2023-05-18T09:45:54;16.90;91.60
74513;DHT22;62992;52.052;8.550;2023-05-18T09:48:44;17.10;90.90
74513;DHT22;62992;52.052;8.550;2023-05-18T09:51:29;16.70;91.70
74513;DHT22;62992;52.052;8.550;2023-05-18T09:54:14;16.50;91.00
74513;DHT22;62992;52.052;8.550;2023-05-18T09:56:58;17.30;92.30
74513;DHT22;62992;52.052;8.550;2023-05-18T09:59:42;17.20;91.40
74513;DHT22;62992;52.052;8.550;2023-05-18T10:02:26;17.50;91.50
74513;DHT22;62992;52.052;8.550;2023-05-18T10:05:17;17.40;91.70
74513;DHT22;62992;52.052;8.550;2023-05-18T10:08:01;17.10;91.40
74513;DHT22;62992;52.052;8.550;2023-05-18T10:10:46;17.40;91.70
74513;DHT22;62992;52.052;8.550;2023-05-18T10:13:32;17.30;91.50
74513;DHT22;62992;52.052;8.550;2023-05-18T10:16:16;17.10;92.30
74513;DHT22;62992;52.052;8.550;2023-05-18T10:19:00;17.00;90.40
74513;DHT22;62992;52.052;8.550;2023-05-18T10:21:46;17.70;91.30
74513;DHT22;62992;52.052;8.550;2023-05-18T10:24:32;17.50;90.70
74513;DHT22;62992;52.052;8.550;2023-05-18T10:27:19;17.10;91.20
74513;DHT22;62992;52.052;8.550;2023-05-18T10:30:05;17.20;91.80
74513;DHT22;62992;52.052;8.550;2023-05-18T10:32:50;16.90;91.30
74513;DHT22;62992;52.052;8.550;2023-05-18T10:35:36;17.40;91.40
74513;DHT22;62992;52.052;8.550;2023-05-18T10:38:21;17.30;91.20
74513;DHT22;62992;52.052;8.550;2023-05-18T10:41:06;16.90;91.80
74513;DHT22;62992;52.052;8.550;2023-05-18T10:43:50;17.50;91.70
74513;DHT22;62992;52.052;8.550;2023-05-18T10:46:35;17.40;92.10
74513;DHT22;62992;52.052;8.550;2023-05-18T10:49:21;16.20;91.70
74513;DHT22;62992;52.052;8.550;2023-05-18T10:52:08;17.40;92.10
74513;DHT22;62992;52.052;8.550;2023-05-18T10:54:52;17.80;91.50
74513;DHT22;62992;52.052;8.550;2023-05-18T10:57:37;16.30;92.60
74513;DHT22;62992;52.052;8.550;2023-05-18T11:00:22;15.90;93.50
74513;DHT22;62992;52.052;8.550;2023-05-18T11:03:07;16.30;93.10
74513;DHT22;62992;52.052;8.550;2023-05-18T11:06:03;16.80;92.90
74513;DHT22;62992;52.052;8.550;2023-05-18T11:08:49;16.60;92.40
74513;DHT22;62992;52.052;8.550;2023-05-18T11:11:49;16.20;93.00
74513;DHT22;62992;52.052;8.550;2023-05-18T11:14:33;16.50;93.80
74513;DHT22;62992;52.052;8.550;2023-05-18T11:17:22;17.40;93.00
74513;DHT22;62992;52.052;8.550;2023-05-18T11:23:01;15.60;93.70
74513;DHT22;62992;52.052;8.550;2023-05-18T11:25:48;15.00;94.00
74513;DHT22;62992;52.052;8.550;2023-05-18T11:28:34;16.20;94.40
74513;DHT22;62992;52.052;8.550;2023-05-18T11:31:41;17.60;93.20
74513;DHT22;62992;52.052;8.550;2023-05-18T11:43:23;17.40;91.30
74513;DHT22;62992;52.052;8.550;2023-05-18T11:46:08;17.50;90.60
74513;DHT22;62992;52.052;8.550;2023-05-18T11:49:03;17.50;92.80
74513;DHT22;62992;52.052;8.550;2023-05-18T11:51:53;17.30;92.10
74513;DHT22;62992;52.052;8.550;2023-05-18T11:54:50;16.90;91.50
74513;DHT22;62992;52.052;8.550;2023-05-18T11:57:39;16.50;92.20
74513;DHT22;62992;52.052;8.550;2023-05-18T12:00:24;17.40;91.90
74513;DHT22;62992;52.052;8.550;2023-05-18T12:03:09;18.00;91.10
74513;DHT22;62992;52.052;8.550;2023-05-18T12:05:57;17.30;91.00
74513;DHT22;62992;52.052;8.550;2023-05-18T12:08:42;17.70;91.60
74513;DHT22;62992;52.052;8.550;2023-05-18T12:11:27;17.30;92.70
74513;DHT22;62992;52.052;8.550;2023-05-18T12:14:11;16.90;92.30
74513;DHT22;62992;52.052;8.550;2023-05-18T12:16:56;16.90;91.70
74513;DHT22;62992;52.052;8.550;2023-05-18T12:19:42;17.10;92.70
74513;DHT22;62992;52.052;8.550;2023-05-18T12:22:26;16.40;92.00
74513;DHT22;62992;52.052;8.550;2023-05-18T12:25:11;16.50;93.40
74513;DHT22;62992;52.052;8.550;2023-05-18T12:27:55;16.70;91.90
74513;DHT22;62992;52.052;8.550;2023-05-18T12:30:42;16.30;92.60
74513;DHT22;62992;52.052;8.550;2023-05-18T12:33:26;16.20;93.90
74513;DHT22;62992;52.052;8.550;2023-05-18T12:36:11;16.00;92.90
74513;DHT22;62992;52.052;8.550;2023-05-18T12:38:56;16.20;92.60
74513;DHT22;62992;52.052;8.550;2023-05-18T12:41:40;16.20;92.10
74513;DHT22;62992;52.052;8.550;2023-05-18T12:44:24;16.20;92.40
74513;DHT22;62992;52.052;8.550;2023-05-18T12:47:09;16.90;92.50
74513;DHT22;62992;52.052;8.550;2023-05-18T12:49:53;16.40;93.20
74513;DHT22;62992;52.052;8.550;2023-05-18T12:52:38;15.80;93.50
74513;DHT22;62992;52.052;8.550;2023-05-18T12:55:22;15.70;93.50
74513;DHT22;62992;52.052;8.550;2023-05-18T12:58:14;16.00;93.70
74513;DHT22;62992;52.052;8.550;2023-05-18T13:01:05;16.00;93.20
74513;DHT22;62992;52.052;8.550;2023-05-18T13:03:56;16.40;93.20
74513;DHT22;62992;52.052;8.550;2023-05-18T13:06:41;16.20;93.40
74513;DHT22;62992;52.052;8.550;2023-05-18T13:09:25;16.20;92.90
74513;DHT22;62992;52.052;8.550;2023-05-18T13:12:09;16.00;92.80
74513;DHT22;62992;52.052;8.550;2023-05-18T13:14:55;16.20;92.40
74513;DHT22;62992;52.052;8.550;2023-05-18T13:17:46;16.20;93.00
74513;DHT22;62992;52.052;8.550;2023-05-18T13:20:35;16.20;93.20
74513;DHT22;62992;52.052;8.550;2023-05-18T13:23:30;15.90;93.70
74513;DHT22;62992;52.052;8.550;2023-05-18T13:26:14;16.10;93.70
74513;DHT22;62992;52.052;8.550;2023-05-18T13:28:59;16.10;92.80
74513;DHT22;62992;52.052;8.550;2023-05-18T13:31:43;16.00;92.40
74513;DHT22;62992;52.052;8.550;2023-05-18T13:34:28;16.10;94.20
74513;DHT22;62992;52.052;8.550;2023-05-18T13:37:13;16.40;93.30
74513;DHT22;62992;52.052;8.550;2023-05-18T13:39:57;16.20;92.90
74513;DHT22;62992;52.052;8.550;2023-05-18T13:42:41;16.30;92.90
74513;DHT22;62992;52.052;8.550;2023-05-18T13:45:26;15.80;92.60
74513;DHT22;62992;52.052;8.550;2023-05-18T13:48:10;15.30;93.00
74513;DHT22;62992;52.052;8.550;2023-05-18T13:50:54;15.70;94.70
74513;DHT22;62992;52.052;8.550;2023-05-18T13:53:39;16.00;93.80
74513;DHT22;62992;52.052;8.550;2023-05-18T13:56:23;16.10;93.70
74513;DHT22;62992;52.052;8.550;2023-05-18T13:59:07;16.10;93.70
74513;DHT22;62992;52.052;8.550;2023-05-18T14:01:52;16.00;93.10
74513;DHT22;62992;52.052;8.550;2023-05-18T14:04:36;16.00;92.80
74513;DHT22;62992;52.052;8.550;2023-05-18T14:07:20;16.00;94.00
74513;DHT22;62992;52.052;8.550;2023-05-18T14:10:04;16.10;93.00
74513;DHT22;62992;52.052;8.550;2023-05-18T14:12:49;15.90;93.00
74513;DHT22;62992;52.052;8.550;2023-05-18T14:15:33;15.90;93.10
74513;DHT22;62992;52.052;8.550;2023-05-18T14:18:17;15.90;93.40
74513;DHT22;62992;52.052;8.550;2023-05-18T14:21:01;15.90;93.40
74513;DHT22;62992;52.052;8.550;2023-05-18T14:23:46;15.90;93.10
74513;DHT22;62992;52.052;8.550;2023-05-18T14:26:30;15.80;93.80
74513;DHT22;62992;52.052;8.550;2023-05-18T14:29:15;15.90;93.30
74513;DHT22;62992;52.052;8.550;2023-05-18T14:31:59;16.20;93.70
74513;DHT22;62992;52.052;8.550;2023-05-18T14:34:43;16.10;92.90
74513;DHT22;62992;52.052;8.550;2023-05-18T14:37:27;16.00;93.30
74513;DHT22;62992;52.052;8.550;2023-05-18T14:40:12;15.90;93.70
74513;DHT22;62992;52.052;8.550;2023-05-18T14:42:56;15.80;92.60
74513;DHT22;62992;52.052;8.550;2023-05-18T14:45:40;15.70;93.00
74513;DHT22;62992;52.052;8.550;2023-05-18T14:48:24;15.70;93.70
74513;DHT22;62992;52.052;8.550;2023-05-18T14:51:09;15.80;93.60
74513;DHT22;62992;52.052;8.550;2023-05-18T14:53:53;15.80;93.80
74513;DHT22;62992;52.052;8.550;2023-05-18T14:56:37;15.80;93.50
74513;DHT22;62992;52.052;8.550;2023-05-18T14:59:21;15.90;93.60
74513;DHT22;62992;52.052;8.550;2023-05-18T15:02:06;15.80;94.10
74513;DHT22;62992;52.052;8.550;2023-05-18T15:04:51;15.70;93.70
74513;DHT22;62992;52.052;8.550;2023-05-18T15:07:35;16.20;94.40
74513;DHT22;62992;52.052;8.550;2023-05-18T15:10:20;16.00;93.50
74513;DHT22;62992;52.052;8.550;2023-05-18T15:13:06;15.70;93.60
74513;DHT22;62992;52.052;8.550;2023-05-18T15:15:50;15.80;94.00
74513;DHT22;62992;52.052;8.550;2023-05-18T15:18:34;15.90;93.80
74513;DHT22;62992;52.052;8.550;2023-05-18T15:21:18;15.70;94.10
74513;DHT22;62992;52.052;8.550;2023-05-18T15:24:02;15.80;94.50
74513;DHT22;62992;52.052;8.550;2023-05-18T15:26:47;15.70;93.80
74513;DHT22;62992;52.052;8.550;2023-05-18T15:29:31;15.70;94.50
74513;DHT22;62992;52.052;8.550;2023-05-18T15:32:15;15.70;94.10
74513;DHT22;62992;52.052;8.550;2023-05-18T15:34:59;15.80;94.00
74513;DHT22;62992;52.052;8.550;2023-05-18T15:37:44;15.80;94.00
74513;DHT22;62992;52.052;8.550;2023-05-18T15:40:28;15.80;94.10
74513;DHT22;62992;52.052;8.550;2023-05-18T15:43:12;15.50;93.80
74513;DHT22;62992;52.052;8.550;2023-05-18T15:45:56;15.50;94.00
74513;DHT22;62992;52.052;8.550;2023-05-18T15:48:41;15.60;94.60
74513;DHT22;62992;52.052;8.550;2023-05-18T15:51:25;15.60;93.80
74513;DHT22;62992;52.052;8.550;2023-05-18T15:54:09;15.50;93.70
74513;DHT22;62992;52.052;8.550;2023-05-18T15:56:53;15.50;95.20
74513;DHT22;62992;52.052;8.550;2023-05-18T15:59:37;15.50;93.90
74513;DHT22;62992;52.052;8.550;2023-05-18T16:02:22;15.50;95.10
74513;DHT22;62992;52.052;8.550;2023-05-18T16:05:06;15.50;94.10
74513;DHT22;62992;52.052;8.550;2023-05-18T16:07:50;15.50;94.10
74513;DHT22;62992;52.052;8.550;2023-05-18T16:10:34;15.40;93.70
74513;DHT22;62992;52.052;8.550;2023-05-18T16:13:19;15.40;94.30
74513;DHT22;62992;52.052;8.550;2023-05-18T16:16:06;15.50;93.90
74513;DHT22;62992;52.052;8.550;2023-05-18T16:18:54;15.40;93.70
74513;DHT22;62992;52.052;8.550;2023-05-18T16:21:38;15.40;94.00
74513;DHT22;62992;52.052;8.550;2023-05-18T16:24:23;15.50;94.30
74513;DHT22;62992;52.052;8.550;2023-05-18T16:27:07;15.40;93.80
74513;DHT22;62992;52.052;8.550;2023-05-18T16:29:51;15.30;94.10
74513;DHT22;62992;52.052;8.550;2023-05-18T16:32:35;15.30;94.20
74513;DHT22;62992;52.052;8.550;2023-05-18T16:35:19;15.30;93.90
74513;DHT22;62992;52.052;8.550;2023-05-18T16:38:04;15.30;93.40
74513;DHT22;62992;52.052;8.550;2023-05-18T16:40:48;15.30;94.00
74513;DHT22;62992;52.052;8.550;2023-05-18T16:43:33;15.20;93.90
74513;DHT22;62992;52.052;8.550;2023-05-18T16:46:18;15.20;93.80
74513;DHT22;62992;52.052;8.550;2023-05-18T16:49:02;15.20;93.80
74513;DHT22;62992;52.052;8.550;2023-05-18T16:51:47;15.10;93.50
74513;DHT22;62992;52.052;8.550;2023-05-18T16:54:31;15.10;93.80
74513;DHT22;62992;52.052;8.550;2023-05-18T16:57:16;15.10;94.50
74513;DHT22;62992;52.052;8.550;2023-05-18T17:00:00;15.10;94.00
74513;DHT22;62992;52.052;8.550;2023-05-18T17:02:44;15.20;94.40
74513;DHT22;62992;52.052;8.550;2023-05-18T17:05:28;15.20;94.10
74513;DHT22;62992;52.052;8.550;2023-05-18T17:08:12;15.10;94.50
74513;DHT22;62992;52.052;8.550;2023-05-18T17:10:57;15.10;94.00
74513;DHT22;62992;52.052;8.550;2023-05-18T17:13:41;15.00;93.80
74513;DHT22;62992;52.052;8.550;2023-05-18T17:16:26;15.00;94.30
74513;DHT22;62992;52.052;8.550;2023-05-18T17:19:10;15.00;94.00
74513;DHT22;62992;52.052;8.550;2023-05-18T17:21:55;14.90;93.80
74513;DHT22;62992;52.052;8.550;2023-05-18T17:24:39;14.90;93.80
74513;DHT22;62992;52.052;8.550;2023-05-18T17:27:24;14.90;94.50
74513;DHT22;62992;52.052;8.550;2023-05-18T17:30:08;14.90;94.50
74513;DHT22;62992;52.052;8.550;2023-05-18T17:32:53;14.90;93.90
74513;DHT22;62992;52.052;8.550;2023-05-18T17:35:38;14.70;94.50
74513;DHT22;62992;52.052;8.550;2023-05-18T17:38:22;14.80;94.40
74513;DHT22;62992;52.052;8.550;2023-05-18T17:41:06;14.70;94.60
74513;DHT22;62992;52.052;8.550;2023-05-18T17:43:50;14.70;94.50
74513;DHT22;62992;52.052;8.550;2023-05-18T17:46:35;14.70;94.80
74513;DHT22;62992;52.052;8.550;2023-05-18T17:49:19;14.70;94.50
74513;DHT22;62992;52.052;8.550;2023-05-18T17:52:03;14.60;95.00